Meyersdale, Pennsylvania
Current Conditions -  °F | °C
As of 12:13 AM on Thursday 23 Oct 2014 (Local Time) from KCBE Reporting Station
Overcast Overcast  
Wind Chill: 52°   Ceiling: 2900
Heat Index: 52°   Visibility: 10mi
Dew Point: 41°   Wind: 7mph
Humidity: 67%   Direction: 330°NNW
Pressure: 30.11"   Gusts: NA
Location:  39.81°N, 79.02°W
Report Text: KCBE 230413Z AUTO 33006KT 10SM OVC029 11/05 A3011 RMK AO1
Loading
Personal Weather Stations






























Interactive Weather Map
Tropical Storm Tracking
New forecast layout! Learn more

10-Day Weather Forecast

Advertisements
Track Severe Weather on mobile